14751 registros encontrados.
Tendencias del filtro actual

Gráficas del histórico

Cargando datos para la gráfica…
Temperatura y humedad
Batería y lluvia
ID Dispositivo Fecha Hora sysDT Temperatura 1 Temperatura 2 Humedad Batería Nivel de lluvia
13951 ciricote12 2026-05-08 08:15:41 2026-05-08 14:15:41 29.7 28.7 82.0 4.12 50.0
13950 ciricote11 2026-05-08 08:01:11 2026-05-08 14:01:11 29.3 29.1 85.5 4.06 0.0
13949 ciricote12 2026-05-08 08:00:41 2026-05-08 14:00:41 29.6 28.9 82.0 4.11 50.0
13948 ciricote12 2026-05-08 07:45:48 2026-05-08 13:45:48 28.8 28.5 86.0 4.11 50.0
13947 ciricote11 2026-05-08 07:45:48 2026-05-08 13:45:48 28.4 28.4 89.0 4.06 0.0
13946 ciricote12 2026-05-08 07:30:48 2026-05-08 13:30:48 27.9 27.5 90.5 4.11 50.0
13945 ciricote11 2026-05-08 07:30:48 2026-05-08 13:30:48 27.6 27.5 93.0 4.06 0.0
13944 ciricote11 2026-05-08 07:15:55 2026-05-08 13:15:55 27.3 27.2 95.0 4.05 0.0
13943 ciricote12 2026-05-08 07:15:48 2026-05-08 13:15:48 27.5 27.1 92.0 4.11 50.0
13942 ciricote11 2026-05-08 07:01:02 2026-05-08 13:01:02 26.7 26.7 97.0 4.05 0.0
13941 ciricote12 2026-05-08 07:00:48 2026-05-08 13:00:48 26.9 26.7 94.0 4.09 50.0
13940 ciricote12 2026-05-08 06:46:02 2026-05-08 12:46:02 26.8 26.5 95.5 4.09 50.0
13939 ciricote11 2026-05-08 06:46:02 2026-05-08 12:46:02 26.7 26.6 98.5 4.05 0.0
13938 ciricote11 2026-05-08 06:31:09 2026-05-08 12:31:09 26.3 26.3 99.5 4.05 0.0
13937 ciricote12 2026-05-08 06:31:02 2026-05-08 12:31:02 26.4 26.2 97.0 4.09 50.0
13936 ciricote11 2026-05-08 06:16:09 2026-05-08 12:16:09 26.2 26.1 99.5 4.05 0.0
13935 ciricote12 2026-05-08 06:16:02 2026-05-08 12:16:02 26.3 26.1 98.0 4.09 50.0
13934 ciricote11 2026-05-08 06:01:09 2026-05-08 12:01:09 26.0 25.8 99.5 4.05 0.0
13933 ciricote12 2026-05-08 06:01:02 2026-05-08 12:01:02 25.9 25.8 99.0 4.09 50.0
13932 ciricote11 2026-05-08 05:46:09 2026-05-08 11:46:09 26.0 25.8 99.5 4.05 0.0
13931 ciricote12 2026-05-08 05:46:02 2026-05-08 11:46:02 25.8 25.8 99.0 4.09 50.0
13930 ciricote11 2026-05-08 05:30:46 2026-05-08 11:30:46 25.8 25.7 99.5 4.05 0.0
13929 ciricote12 2026-05-08 05:30:39 2026-05-08 11:30:39 25.7 25.7 99.5 4.09 50.0
13928 ciricote12 2026-05-08 05:16:02 2026-05-08 11:16:02 25.8 25.7 99.5 4.09 50.0
13927 ciricote11 2026-05-08 05:15:46 2026-05-08 11:15:46 25.8 25.7 99.5 4.05 0.0
13926 ciricote11 2026-05-08 05:01:09 2026-05-08 11:01:09 25.6 25.6 99.5 4.05 0.0
13925 ciricote12 2026-05-08 05:00:48 2026-05-08 11:00:48 25.6 25.6 99.5 4.09 50.0
13924 ciricote11 2026-05-08 04:46:09 2026-05-08 10:46:09 25.8 25.7 99.5 4.05 0.0
13923 ciricote12 2026-05-08 04:45:48 2026-05-08 10:45:48 25.7 25.7 99.0 4.09 50.0
13922 ciricote11 2026-05-08 04:31:09 2026-05-08 10:31:09 25.9 25.8 99.5 4.05 0.0
13921 ciricote12 2026-05-08 04:30:48 2026-05-08 10:30:48 25.8 25.7 99.0 4.09 50.0
13920 ciricote11 2026-05-08 04:16:09 2026-05-08 10:16:09 25.9 25.9 99.5 4.05 0.0
13919 ciricote12 2026-05-08 04:15:48 2026-05-08 10:15:48 25.8 25.8 98.5 4.09 50.0
13918 ciricote11 2026-05-08 04:01:02 2026-05-08 10:01:02 26.0 25.9 99.5 4.05 0.0
13917 ciricote12 2026-05-08 04:00:41 2026-05-08 10:00:41 25.9 25.9 98.0 4.09 50.0
13916 ciricote11 2026-05-08 03:46:02 2026-05-08 09:46:02 26.2 26.1 99.5 4.05 0.0
13915 ciricote12 2026-05-08 03:45:48 2026-05-08 09:45:48 26.1 26.1 97.0 4.09 50.0
13914 ciricote11 2026-05-08 03:30:55 2026-05-08 09:30:55 26.3 26.1 99.5 4.05 0.0
13913 ciricote12 2026-05-08 03:30:41 2026-05-08 09:30:41 26.1 26.2 96.5 4.09 50.0
13912 ciricote11 2026-05-08 03:15:55 2026-05-08 09:15:55 26.5 26.4 98.0 4.05 0.0
13911 ciricote12 2026-05-08 03:15:41 2026-05-08 09:15:41 26.4 26.4 94.5 4.09 50.0
13910 ciricote11 2026-05-08 03:00:55 2026-05-08 09:00:55 26.6 26.5 97.0 4.05 0.0
13909 ciricote12 2026-05-08 03:00:41 2026-05-08 09:00:41 26.5 26.5 94.0 4.09 50.0
13908 ciricote11 2026-05-08 02:45:48 2026-05-08 08:45:48 26.8 26.6 96.0 4.05 0.0
13907 ciricote12 2026-05-08 02:45:41 2026-05-08 08:45:41 26.6 26.6 93.0 4.09 50.0
13906 ciricote11 2026-05-08 02:30:47 2026-05-08 08:30:48 26.9 26.8 94.5 4.05 0.0
13905 ciricote12 2026-05-08 02:30:41 2026-05-08 08:30:41 26.7 26.8 91.5 4.09 50.0
13904 ciricote11 2026-05-08 02:15:48 2026-05-08 08:15:48 26.9 26.8 94.0 4.05 0.0
13903 ciricote12 2026-05-08 02:15:41 2026-05-08 08:15:41 26.8 26.9 91.0 4.09 50.0
13902 ciricote12 2026-05-08 02:01:04 2026-05-08 08:01:04 27.0 27.1 90.0 4.09 50.0
13901 ciricote11 2026-05-08 02:00:48 2026-05-08 08:00:48 27.1 27.1 93.0 4.05 0.0
13900 ciricote12 2026-05-08 01:46:04 2026-05-08 07:46:04 27.1 27.2 89.0 4.09 50.0
13899 ciricote11 2026-05-08 01:45:48 2026-05-08 07:45:48 27.3 27.2 92.0 4.05 0.0
13898 ciricote11 2026-05-08 01:31:10 2026-05-08 07:31:10 27.4 27.3 91.0 4.05 0.0
13897 ciricote12 2026-05-08 01:31:04 2026-05-08 07:31:04 27.3 27.4 87.5 4.09 50.0
13896 ciricote11 2026-05-08 01:16:10 2026-05-08 07:16:10 27.6 27.6 89.0 4.05 0.0
13895 ciricote12 2026-05-08 01:16:04 2026-05-08 07:16:04 27.5 27.6 86.0 4.09 50.0
13894 ciricote12 2026-05-08 01:01:04 2026-05-08 07:01:04 27.7 27.7 84.5 4.09 50.0
13893 ciricote11 2026-05-08 01:01:04 2026-05-08 07:01:04 27.8 27.7 87.0 4.05 0.0
13892 ciricote12 2026-05-08 00:46:04 2026-05-08 06:46:04 27.8 27.9 82.5 4.09 50.0
13891 ciricote11 2026-05-08 00:46:03 2026-05-08 06:46:04 28.0 27.9 85.5 4.05 0.0
13890 ciricote12 2026-05-08 00:31:04 2026-05-08 06:31:04 28.1 28.1 81.0 4.09 50.0
13889 ciricote11 2026-05-08 00:31:03 2026-05-08 06:31:04 28.2 28.1 84.0 4.06 0.0
13888 ciricote12 2026-05-08 00:16:04 2026-05-08 06:16:04 28.2 28.2 80.5 4.09 50.0
13887 ciricote11 2026-05-08 00:15:57 2026-05-08 06:15:57 28.3 28.2 83.5 4.06 0.0
13886 ciricote12 2026-05-08 00:01:04 2026-05-08 06:01:04 28.4 28.4 80.0 4.09 50.0
13885 ciricote11 2026-05-08 00:00:57 2026-05-08 06:00:57 28.5 28.4 82.5 4.06 0.0
13884 ciricote12 2026-05-07 23:46:04 2026-05-08 05:46:04 28.5 28.4 79.0 4.09 50.0
13883 ciricote11 2026-05-07 23:45:50 2026-05-08 05:45:50 28.6 28.6 82.0 4.06 0.0
13882 ciricote12 2026-05-07 23:30:57 2026-05-08 05:30:57 28.8 28.5 79.0 4.09 50.0
13881 ciricote11 2026-05-07 23:30:50 2026-05-08 05:30:50 28.9 28.8 80.0 4.06 0.0
13880 ciricote12 2026-05-07 23:15:57 2026-05-08 05:15:57 28.9 28.7 82.5 4.09 50.0
13879 ciricote11 2026-05-07 23:15:43 2026-05-08 05:15:43 29.0 28.9 78.5 4.06 0.0
13878 ciricote11 2026-05-07 23:01:06 2026-05-08 05:01:06 29.3 29.2 76.5 4.06 0.0
13877 ciricote12 2026-05-07 23:00:57 2026-05-08 05:00:57 29.1 29.1 79.0 4.09 50.0
13876 ciricote11 2026-05-07 22:45:58 2026-05-08 04:45:59 29.6 29.5 74.5 4.06 0.0
13875 ciricote12 2026-05-07 22:45:57 2026-05-08 04:45:57 29.4 29.3 72.0 4.09 50.0
13874 ciricote11 2026-05-07 22:30:59 2026-05-08 04:30:59 29.9 29.8 72.0 4.06 0.0
13873 ciricote12 2026-05-07 22:30:57 2026-05-08 04:30:57 29.8 29.6 69.5 4.09 50.0
13872 ciricote12 2026-05-07 22:15:57 2026-05-08 04:15:57 30.1 29.9 68.5 4.09 50.0
13871 ciricote11 2026-05-07 22:15:52 2026-05-08 04:15:52 30.1 30.1 71.0 4.06 0.0
13870 ciricote11 2026-05-07 22:00:52 2026-05-08 04:00:52 30.4 30.3 69.5 4.06 0.0
13869 ciricote11 2026-05-07 21:45:52 2026-05-08 03:45:52 30.5 30.6 69.0 4.06 0.0
13868 ciricote12 2026-05-07 21:45:50 2026-05-08 03:45:50 30.5 30.5 67.0 4.11 50.0
13867 ciricote12 2026-05-07 21:30:50 2026-05-08 03:30:50 30.8 30.9 65.0 4.11 50.0
13866 ciricote11 2026-05-07 21:30:45 2026-05-08 03:30:45 30.9 30.9 67.0 4.06 0.0
13865 ciricote12 2026-05-07 21:15:50 2026-05-08 03:15:50 31.2 31.2 63.5 4.11 50.0
13864 ciricote11 2026-05-07 21:15:45 2026-05-08 03:15:45 31.3 31.3 65.0 4.06 0.0
13863 ciricote11 2026-05-07 21:01:07 2026-05-08 03:01:08 31.5 31.5 63.5 4.06 0.0
13862 ciricote12 2026-05-07 21:00:50 2026-05-08 03:00:50 31.5 31.5 62.5 4.11 50.0
13861 ciricote11 2026-05-07 20:46:01 2026-05-08 02:46:01 32.0 31.9 60.5 4.06 0.0
13860 ciricote12 2026-05-07 20:45:57 2026-05-08 02:45:57 31.9 32.0 60.5 4.11 50.0
13859 ciricote11 2026-05-07 20:31:01 2026-05-08 02:31:01 32.5 32.5 58.5 4.06 0.0
13858 ciricote12 2026-05-07 20:30:57 2026-05-08 02:30:57 32.4 32.4 58.0 4.11 50.0
13857 ciricote11 2026-05-07 20:15:54 2026-05-08 02:15:54 33.1 33.1 55.5 4.06 0.0
13856 ciricote12 2026-05-07 20:15:50 2026-05-08 02:15:50 33.0 32.9 54.0 4.11 50.0
13855 ciricote11 2026-05-07 20:00:54 2026-05-08 02:00:54 33.5 33.4 53.5 4.06 0.0
13854 ciricote12 2026-05-07 20:00:50 2026-05-08 02:00:50 33.4 33.1 53.0 4.11 50.0
13853 ciricote12 2026-05-07 19:45:50 2026-05-08 01:45:50 33.8 33.9 50.5 4.11 50.0
13852 ciricote11 2026-05-07 19:45:47 2026-05-08 01:45:47 33.9 33.9 51.5 4.06 0.0
13851 ciricote12 2026-05-07 19:30:50 2026-05-08 01:30:50 34.4 34.4 48.0 4.11 50.0
13850 ciricote11 2026-05-07 19:30:47 2026-05-08 01:30:47 34.6 34.5 48.5 4.06 0.0
13849 ciricote12 2026-05-07 19:15:50 2026-05-08 01:15:50 34.9 34.9 45.5 4.11 50.0
13848 ciricote11 2026-05-07 19:15:47 2026-05-08 01:15:47 35.0 34.9 46.5 4.06 0.0
13847 ciricote12 2026-05-07 19:00:50 2026-05-08 01:00:50 35.3 35.4 44.5 4.11 50.0
13846 ciricote11 2026-05-07 19:00:47 2026-05-08 01:00:47 35.5 35.4 45.5 4.06 0.0
13845 ciricote12 2026-05-07 18:45:50 2026-05-08 00:45:50 35.7 35.7 42.5 4.11 50.0
13844 ciricote11 2026-05-07 18:45:47 2026-05-08 00:45:47 35.9 35.8 43.5 4.06 0.0
13843 ciricote12 2026-05-07 18:30:50 2026-05-08 00:30:50 35.8 35.7 43.0 4.11 50.0
13842 ciricote11 2026-05-07 18:30:47 2026-05-08 00:30:47 36.1 35.8 43.5 4.06 0.0
13841 ciricote11 2026-05-07 18:16:10 2026-05-08 00:16:10 34.7 35.0 53.0 4.06 0.0
13840 ciricote12 2026-05-07 18:15:50 2026-05-08 00:15:50 35.1 35.1 51.5 4.11 50.0
13839 ciricote11 2026-05-07 18:01:10 2026-05-08 00:01:10 35.1 35.7 50.0 4.06 0.0
13838 ciricote12 2026-05-07 18:00:50 2026-05-08 00:00:50 35.3 36.1 48.5 4.11 50.0
13837 ciricote11 2026-05-07 17:46:10 2026-05-07 23:46:10 37.3 37.3 39.5 4.08 0.0
13836 ciricote12 2026-05-07 17:45:43 2026-05-07 23:45:43 37.1 37.1 38.5 4.11 50.0
13835 ciricote11 2026-05-07 17:31:10 2026-05-07 23:31:10 37.7 37.7 38.0 4.08 0.0
13834 ciricote12 2026-05-07 17:30:43 2026-05-07 23:30:43 37.6 37.5 38.0 4.11 50.0
13833 ciricote1 2026-05-07 17:22:56 2026-05-07 23:22:56 37.6 -99.9 99.5 4.21 100.0
13832 ciricote1 2026-05-07 17:22:05 2026-05-07 23:22:05 37.6 -99.9 99.5 4.21 100.0
13831 ciricote1 2026-05-07 17:21:13 2026-05-07 23:21:13 37.6 -99.9 99.5 4.21 100.0
13830 ciricote1 2026-05-07 17:20:21 2026-05-07 23:20:21 37.5 -99.9 99.5 4.21 100.0
13829 ciricote1 2026-05-07 17:19:30 2026-05-07 23:19:30 37.5 -99.9 99.5 4.21 100.0
13828 ciricote1 2026-05-07 17:18:38 2026-05-07 23:18:38 37.5 -99.9 99.5 4.21 100.0
13827 ciricote1 2026-05-07 17:17:46 2026-05-07 23:17:46 37.8 -99.9 99.5 4.23 100.0
13826 ciricote1 2026-05-07 17:16:55 2026-05-07 23:16:55 37.8 -99.9 99.5 4.23 100.0
13825 ciricote1 2026-05-07 17:16:03 2026-05-07 23:16:03 37.7 -99.9 99.5 4.23 100.0
13824 ciricote11 2026-05-07 17:16:02 2026-05-07 23:16:03 38.0 38.0 38.0 4.08 0.0
13823 ciricote12 2026-05-07 17:15:43 2026-05-07 23:15:43 37.8 37.7 37.0 4.11 50.0
13822 ciricote1 2026-05-07 17:01:11 2026-05-07 23:01:11 38.0 38.3 38.5 4.23 3.0
13821 ciricote11 2026-05-07 17:01:03 2026-05-07 23:01:03 38.2 38.3 37.0 4.08 0.0
13820 ciricote12 2026-05-07 17:00:43 2026-05-07 23:00:43 38.0 38.0 36.5 4.11 50.0
13819 ciricote11 2026-05-07 16:46:02 2026-05-07 22:46:03 38.5 38.3 36.0 4.08 0.0
13818 ciricote1 2026-05-07 16:45:55 2026-05-07 22:45:55 38.3 38.3 37.5 4.23 1.0
13817 ciricote12 2026-05-07 16:45:50 2026-05-07 22:45:50 38.3 38.0 36.0 4.11 50.0
13816 ciricote11 2026-05-07 16:31:03 2026-05-07 22:31:03 38.8 38.9 35.0 4.08 0.0
13815 ciricote12 2026-05-07 16:30:50 2026-05-07 22:30:50 38.6 38.4 35.0 4.11 50.0
13814 ciricote1 2026-05-07 16:30:48 2026-05-07 22:30:48 38.5 38.9 36.5 4.23 0.0
13813 ciricote1 2026-05-07 16:16:11 2026-05-07 22:16:11 39.0 39.6 36.0 4.23 0.0
13812 ciricote11 2026-05-07 16:16:03 2026-05-07 22:16:03 39.3 39.8 34.0 4.08 0.0
13811 ciricote12 2026-05-07 16:15:50 2026-05-07 22:15:50 39.0 39.0 35.0 4.11 50.0
13810 ciricote1 2026-05-07 16:01:11 2026-05-07 22:01:11 38.9 39.6 37.0 4.23 0.0
13809 ciricote11 2026-05-07 16:01:03 2026-05-07 22:01:03 39.1 39.9 35.0 4.08 0.0
13808 ciricote12 2026-05-07 16:00:50 2026-05-07 22:00:50 38.8 38.7 36.0 4.11 50.0
13807 ciricote12 2026-05-07 15:45:43 2026-05-07 21:45:43 38.5 38.3 37.0 4.11 50.0
13806 ciricote1 2026-05-07 15:31:04 2026-05-07 21:31:04 40.7 41.7 34.0 4.23 0.0
13805 ciricote11 2026-05-07 15:31:02 2026-05-07 21:31:03 43.0 42.4 31.5 4.08 0.0
13804 ciricote12 2026-05-07 15:30:43 2026-05-07 21:30:43 39.8 39.8 34.0 4.11 50.0
13803 ciricote19 2026-05-07 15:24:31 2026-05-07 21:24:31 28.3 28.2 64.5 4.03 0.0
13802 ciricote19 2026-05-07 15:23:31 2026-05-07 21:23:31 28.3 28.2 64.5 4.03 0.0
13801 ciricote19 2026-05-07 15:22:31 2026-05-07 21:22:31 28.3 28.2 64.5 4.03 0.0
13800 ciricote19 2026-05-07 15:21:31 2026-05-07 21:21:31 28.4 28.2 64.5 4.05 0.0
13799 ciricote19 2026-05-07 15:20:31 2026-05-07 21:20:31 28.4 28.2 64.5 4.03 0.0
13798 ciricote19 2026-05-07 15:19:31 2026-05-07 21:19:31 28.4 28.2 64.5 4.05 0.0
13797 ciricote19 2026-05-07 15:18:31 2026-05-07 21:18:31 28.4 28.2 64.5 4.03 0.0
13796 ciricote19 2026-05-07 15:17:31 2026-05-07 21:17:31 28.4 28.2 64.0 4.03 0.0
13795 ciricote19 2026-05-07 15:16:31 2026-05-07 21:16:31 28.5 28.3 64.0 4.03 0.0
13794 ciricote1 2026-05-07 15:16:04 2026-05-07 21:16:04 39.3 39.7 37.5 4.23 0.0
13793 ciricote11 2026-05-07 15:16:02 2026-05-07 21:16:03 39.9 40.2 35.5 4.08 0.0
13792 ciricote12 2026-05-07 15:15:43 2026-05-07 21:15:43 39.2 39.2 36.0 4.11 50.0
13791 ciricote19 2026-05-07 15:15:31 2026-05-07 21:15:31 28.5 28.3 64.0 4.03 0.0
13790 ciricote19 2026-05-07 15:14:31 2026-05-07 21:14:31 28.5 28.3 64.0 4.03 0.0
13789 ciricote19 2026-05-07 15:13:31 2026-05-07 21:13:31 28.5 28.3 64.0 4.03 0.0
13788 ciricote19 2026-05-07 15:12:31 2026-05-07 21:12:31 28.5 28.2 64.0 4.03 0.0
13787 ciricote19 2026-05-07 15:11:31 2026-05-07 21:11:31 28.5 28.3 64.0 4.03 0.0
13786 ciricote19 2026-05-07 15:10:31 2026-05-07 21:10:31 28.5 28.4 64.0 4.03 0.0
13785 ciricote19 2026-05-07 15:09:31 2026-05-07 21:09:31 28.5 28.4 64.0 4.03 0.0
13784 ciricote19 2026-05-07 15:08:31 2026-05-07 21:08:31 28.5 28.4 64.0 4.03 0.0
13783 ciricote19 2026-05-07 15:07:31 2026-05-07 21:07:31 28.5 28.4 64.0 4.03 0.0
13782 ciricote19 2026-05-07 15:06:31 2026-05-07 21:06:31 28.6 28.4 64.0 4.03 0.0
13781 ciricote19 2026-05-07 15:05:31 2026-05-07 21:05:31 28.6 28.5 64.0 4.03 0.0
13780 ciricote19 2026-05-07 15:04:31 2026-05-07 21:04:31 28.6 28.5 64.0 4.03 0.0
13779 ciricote19 2026-05-07 15:03:31 2026-05-07 21:03:31 28.6 28.6 64.0 4.03 0.0
13778 ciricote19 2026-05-07 15:02:31 2026-05-07 21:02:31 28.6 28.5 64.0 4.03 0.0
13777 ciricote19 2026-05-07 15:01:31 2026-05-07 21:01:31 28.6 28.5 63.5 4.03 0.0
13776 ciricote1 2026-05-07 15:01:04 2026-05-07 21:01:04 40.6 41.3 35.5 4.23 0.0
13775 ciricote11 2026-05-07 15:01:03 2026-05-07 21:01:03 42.7 41.9 32.5 4.08 0.0
13774 ciricote12 2026-05-07 15:00:43 2026-05-07 21:00:43 40.1 40.6 33.5 4.11 50.0
13773 ciricote19 2026-05-07 15:00:31 2026-05-07 21:00:31 28.6 28.7 64.0 4.05 0.0
13772 ciricote19 2026-05-07 14:59:31 2026-05-07 20:59:31 28.6 28.7 63.5 4.03 0.0
13771 ciricote19 2026-05-07 14:58:31 2026-05-07 20:58:31 28.6 28.7 63.5 4.03 0.0
13770 ciricote19 2026-05-07 14:57:31 2026-05-07 20:57:31 28.6 28.7 63.5 4.03 0.0
13769 ciricote19 2026-05-07 14:56:31 2026-05-07 20:56:31 28.6 28.8 63.5 4.03 0.0
13768 ciricote19 2026-05-07 14:55:31 2026-05-07 20:55:31 28.6 28.8 63.5 4.03 0.0
13767 ciricote19 2026-05-07 14:54:31 2026-05-07 20:54:31 28.7 28.8 63.5 4.03 0.0
13766 ciricote19 2026-05-07 14:53:31 2026-05-07 20:53:31 28.8 28.9 64.0 4.03 0.0
13765 ciricote19 2026-05-07 14:52:31 2026-05-07 20:52:31 28.8 28.9 64.0 4.03 0.0
13764 ciricote19 2026-05-07 14:51:31 2026-05-07 20:51:31 28.8 28.9 64.0 4.03 0.0
13763 ciricote19 2026-05-07 14:50:31 2026-05-07 20:50:31 28.9 28.9 64.0 4.03 0.0
13762 ciricote19 2026-05-07 14:49:31 2026-05-07 20:49:31 29.0 29.0 65.0 4.03 0.0
13761 ciricote19 2026-05-07 14:48:31 2026-05-07 20:48:31 29.0 29.0 65.0 4.03 0.0
13760 ciricote19 2026-05-07 14:46:31 2026-05-07 20:46:31 29.1 29.0 66.0 4.03 0.0
13759 ciricote1 2026-05-07 14:46:11 2026-05-07 20:46:11 40.3 40.7 36.0 4.23 0.0
13758 ciricote11 2026-05-07 14:46:03 2026-05-07 20:46:03 42.8 41.3 33.0 4.08 0.0
13757 ciricote12 2026-05-07 14:45:43 2026-05-07 20:45:43 40.4 40.6 33.5 4.11 50.0
13756 ciricote19 2026-05-07 14:45:31 2026-05-07 20:45:31 29.1 29.0 66.0 4.03 0.0
13755 ciricote19 2026-05-07 14:43:31 2026-05-07 20:43:31 29.1 29.0 66.0 4.03 0.0
13754 ciricote19 2026-05-07 14:42:31 2026-05-07 20:42:31 29.1 29.1 66.5 4.03 0.0
13753 ciricote19 2026-05-07 14:41:31 2026-05-07 20:41:31 29.1 29.1 65.5 4.05 0.0
13752 ciricote19 2026-05-07 14:40:31 2026-05-07 20:40:31 29.1 29.1 65.0 4.03 0.0
Página 5 de 74